createdAt,value
2023-01-17T00:00:42.692Z,4.80
2023-01-17T00:03:30.753Z,4.80
2023-01-17T00:06:35.032Z,4.80
2023-01-17T00:09:39.702Z,4.80
2023-01-17T00:12:30.017Z,4.80
2023-01-17T00:15:19.606Z,4.80
2023-01-17T00:18:06.474Z,4.80
2023-01-17T00:21:11.984Z,4.80
2023-01-17T00:24:16.531Z,4.80
2023-01-17T00:27:14.423Z,4.80
2023-01-17T00:29:59.975Z,4.80
2023-01-17T00:32:45.659Z,4.80
2023-01-17T00:35:32.503Z,4.80
2023-01-17T00:38:22.562Z,4.80
2023-01-17T00:41:11.494Z,4.80
2023-01-17T00:44:15.773Z,4.80
2023-01-17T00:47:20.185Z,4.80
2023-01-17T00:50:25.189Z,4.80
2023-01-17T00:53:29.700Z,4.80
2023-01-17T00:56:35.675Z,4.80
2023-01-17T00:59:40.199Z,4.80
2023-01-17T01:02:45.691Z,4.80
2023-01-17T01:05:50.263Z,4.80
2023-01-17T01:08:54.696Z,4.80
2023-01-17T01:12:00.807Z,4.70
2023-01-17T01:15:05.165Z,4.80
2023-01-17T01:18:09.715Z,4.70
2023-01-17T01:21:14.278Z,4.70
2023-01-17T01:24:18.862Z,4.70
2023-01-17T01:27:25.035Z,4.70
2023-01-17T01:30:30.418Z,4.70
2023-01-17T01:33:19.625Z,4.70
2023-01-17T01:36:09.723Z,4.70
2023-01-17T01:38:56.806Z,4.70
2023-01-17T01:41:43.405Z,4.60
2023-01-17T01:44:50.005Z,4.60
2023-01-17T01:47:40.744Z,4.60
2023-01-17T01:50:30.481Z,4.60
2023-01-17T01:53:19.703Z,4.60
2023-01-17T01:56:11.907Z,4.60
2023-01-17T01:59:02.832Z,4.60
2023-01-17T02:01:53.504Z,4.60
2023-01-17T02:04:40.791Z,4.60
2023-01-17T02:07:34.778Z,4.60
2023-01-17T02:10:21.550Z,4.60
2023-01-17T02:13:10.297Z,4.60
2023-01-17T02:16:07.008Z,4.60
2023-01-17T02:19:16.797Z,4.50
2023-01-17T02:22:45.442Z,4.50
2023-01-17T02:26:20.540Z,4.50
2023-01-17T02:30:07.284Z,4.50
2023-01-17T02:33:17.931Z,4.50
2023-01-17T02:36:16.105Z,4.40
2023-01-17T02:39:10.387Z,4.40
2023-01-17T02:42:05.497Z,4.40
2023-01-17T02:44:52.010Z,4.40
2023-01-17T02:47:39.079Z,4.30
2023-01-17T02:50:40.471Z,4.30
2023-01-17T02:53:42.943Z,4.30
2023-01-17T02:56:49.555Z,4.30
2023-01-17T02:59:53.913Z,4.30
2023-01-17T03:02:53.563Z,4.30
2023-01-17T03:05:47.788Z,4.30
2023-01-17T03:08:35.182Z,4.40
2023-01-17T03:11:22.159Z,4.40
2023-01-17T03:14:08.992Z,4.40
2023-01-17T03:16:55.602Z,4.40
2023-01-17T03:19:42.211Z,4.40
2023-01-17T03:22:30.529Z,4.40
2023-01-17T03:25:17.824Z,4.30
2023-01-17T03:28:04.447Z,4.20
2023-01-17T03:30:51.196Z,4.20
2023-01-17T03:33:37.680Z,4.10
2023-01-17T03:36:24.313Z,4.00
2023-01-17T03:39:12.318Z,4.00
2023-01-17T03:41:59.224Z,4.00
2023-01-17T03:44:45.937Z,4.00
2023-01-17T03:47:32.818Z,3.90
2023-01-17T03:50:20.062Z,3.90
2023-01-17T03:53:06.561Z,3.90
2023-01-17T03:55:54.619Z,3.90
2023-01-17T03:58:41.502Z,3.90
2023-01-17T04:01:28.364Z,3.90
2023-01-17T04:04:15.831Z,3.90
2023-01-17T04:07:02.715Z,3.90
2023-01-17T04:09:50.030Z,3.90
2023-01-17T04:12:38.153Z,3.80
2023-01-17T04:15:24.762Z,3.80
2023-01-17T04:18:13.413Z,3.80
2023-01-17T04:21:00.101Z,3.80
2023-01-17T04:23:47.377Z,3.70
2023-01-17T04:26:34.020Z,3.70
2023-01-17T04:29:22.348Z,3.70
2023-01-17T04:32:08.887Z,3.70
2023-01-17T04:34:55.489Z,3.70
2023-01-17T04:37:41.957Z,3.60
2023-01-17T04:40:29.495Z,3.60
2023-01-17T04:43:16.313Z,3.60
2023-01-17T04:46:05.849Z,3.50
2023-01-17T04:48:52.380Z,3.50
2023-01-17T04:51:39.134Z,3.50
2023-01-17T04:54:25.861Z,3.50
2023-01-17T04:57:12.827Z,3.50
2023-01-17T04:59:59.501Z,3.50
2023-01-17T05:02:47.692Z,3.40
2023-01-17T05:05:34.815Z,3.50
2023-01-17T05:08:21.395Z,3.40
2023-01-17T05:11:13.704Z,3.40
2023-01-17T05:14:00.348Z,3.40
2023-01-17T05:16:47.187Z,3.40
2023-01-17T05:19:35.653Z,3.40
2023-01-17T05:22:22.504Z,3.40
2023-01-17T05:25:09.955Z,3.40
2023-01-17T05:27:57.224Z,3.40
2023-01-17T05:30:43.838Z,3.40
2023-01-17T05:33:30.733Z,3.40
2023-01-17T05:36:20.356Z,3.40
2023-01-17T05:39:08.035Z,3.40
2023-01-17T05:41:54.496Z,3.40
2023-01-17T05:44:41.376Z,3.40
2023-01-17T05:47:30.920Z,3.40
2023-01-17T05:50:20.624Z,3.40
2023-01-17T05:53:11.161Z,3.40
2023-01-17T05:55:58.218Z,3.40
2023-01-17T05:58:45.143Z,3.40
2023-01-17T06:01:31.742Z,3.40
2023-01-17T06:04:18.579Z,3.40
2023-01-17T06:07:05.219Z,3.40
2023-01-17T06:09:53.502Z,3.40
2023-01-17T06:12:40.100Z,3.40
2023-01-17T06:15:27.255Z,3.40
2023-01-17T06:18:17.450Z,3.40
2023-01-17T06:21:04.101Z,3.40
2023-01-17T06:23:51.091Z,3.40
2023-01-17T06:26:39.388Z,3.40
2023-01-17T06:29:26.306Z,3.40
2023-01-17T06:32:14.088Z,3.50
2023-01-17T06:35:00.601Z,3.50
2023-01-17T06:37:47.552Z,3.50
2023-01-17T06:40:34.705Z,3.50
2023-01-17T06:43:22.818Z,3.50
2023-01-17T06:46:09.679Z,3.50
2023-01-17T06:48:56.481Z,3.50
2023-01-17T06:51:43.776Z,3.50
2023-01-17T06:54:30.551Z,3.50
2023-01-17T06:57:17.494Z,3.50
2023-01-17T07:00:07.300Z,3.40
2023-01-17T07:02:54.561Z,3.40
2023-01-17T07:05:42.125Z,3.40
2023-01-17T07:08:29.364Z,3.40
2023-01-17T07:11:16.024Z,3.40
2023-01-17T07:14:03.066Z,3.40
2023-01-17T07:16:51.080Z,3.40
2023-01-17T07:19:37.602Z,3.40
2023-01-17T07:22:24.306Z,3.40
2023-01-17T07:25:11.486Z,3.40
2023-01-17T07:27:58.513Z,3.40
2023-01-17T07:30:45.487Z,3.40
2023-01-17T07:33:33.830Z,3.40
2023-01-17T07:36:20.772Z,3.40
2023-01-17T07:39:07.623Z,3.40
2023-01-17T07:41:54.339Z,3.30
2023-01-17T07:44:43.919Z,3.30
2023-01-17T07:47:30.699Z,3.30
2023-01-17T07:50:18.956Z,3.20
2023-01-17T07:53:06.322Z,3.20
2023-01-17T07:55:53.188Z,3.20
2023-01-17T07:58:39.808Z,3.20
2023-01-17T08:01:27.231Z,3.10
2023-01-17T08:04:14.540Z,3.10
2023-01-17T08:07:03.496Z,3.10
2023-01-17T08:09:50.436Z,3.10
2023-01-17T08:12:38.511Z,3.10
2023-01-17T08:15:26.555Z,3.10
2023-01-17T08:18:13.168Z,3.00
2023-01-17T08:21:00.011Z,3.10
2023-01-17T08:23:51.731Z,3.10
2023-01-17T08:26:38.592Z,3.10
2023-01-17T08:29:25.522Z,3.10
2023-01-17T08:32:12.400Z,3.10
2023-01-17T08:34:59.024Z,3.10
2023-01-17T08:37:45.936Z,3.10
2023-01-17T08:40:33.972Z,3.10
2023-01-17T08:43:20.585Z,3.10
2023-01-17T08:46:07.240Z,3.10
2023-01-17T08:48:55.792Z,3.20
2023-01-17T08:51:42.441Z,3.20
2023-01-17T08:54:28.970Z,3.20
2023-01-17T08:57:17.038Z,3.20
2023-01-17T09:00:04.140Z,3.20
2023-01-17T09:02:54.109Z,3.20
2023-01-17T09:05:41.891Z,3.20
2023-01-17T09:08:28.344Z,3.20
2023-01-17T09:11:18.181Z,3.20
2023-01-17T09:14:06.542Z,3.30
2023-01-17T09:16:53.586Z,3.30
2023-01-17T09:19:43.758Z,3.30
2023-01-17T09:22:30.332Z,3.30
2023-01-17T09:25:17.258Z,3.30
2023-01-17T09:28:03.837Z,3.30
2023-01-17T09:30:52.320Z,3.40
2023-01-17T09:33:41.606Z,3.40
2023-01-17T09:36:31.748Z,3.40
2023-01-17T09:39:18.673Z,3.40
2023-01-17T09:42:32.837Z,3.40
2023-01-17T09:45:21.481Z,3.40
2023-01-17T09:48:22.544Z,3.40
2023-01-17T09:51:17.900Z,3.40
2023-01-17T09:54:05.224Z,3.40
2023-01-17T09:57:02.357Z,3.40
2023-01-17T10:00:03.975Z,3.40
2023-01-17T10:03:22.616Z,3.50
2023-01-17T10:06:43.914Z,3.50
2023-01-17T10:09:53.385Z,3.50
2023-01-17T10:12:50.953Z,3.50
2023-01-17T10:16:01.879Z,3.50
2023-01-17T10:19:17.353Z,3.60
2023-01-17T10:22:51.178Z,3.60
2023-01-17T10:25:48.103Z,3.60
2023-01-17T10:28:42.546Z,3.60
2023-01-17T10:31:34.754Z,3.60
2023-01-17T10:34:30.242Z,3.70
2023-01-17T10:37:22.811Z,3.70
2023-01-17T10:40:20.548Z,3.70
2023-01-17T10:43:18.745Z,3.70
2023-01-17T10:46:05.739Z,3.80
2023-01-17T10:48:54.047Z,3.80
2023-01-17T10:52:16.727Z,3.80
2023-01-17T10:55:28.258Z,3.80
2023-01-17T10:58:15.526Z,3.80
2023-01-17T11:01:13.231Z,3.90
2023-01-17T11:04:00.228Z,3.90
2023-01-17T11:06:57.926Z,4.00
2023-01-17T11:09:49.545Z,4.00
2023-01-17T11:12:44.847Z,4.00
2023-01-17T11:15:39.410Z,4.00
2023-01-17T11:18:29.810Z,4.00
2023-01-17T11:21:21.563Z,4.10
2023-01-17T11:24:19.705Z,4.10
2023-01-17T11:27:23.526Z,4.10
2023-01-17T11:30:18.392Z,4.20
2023-01-17T11:33:35.863Z,4.30
2023-01-17T11:36:27.266Z,4.40
2023-01-17T11:39:28.219Z,4.50
2023-01-17T11:42:35.671Z,4.60
2023-01-17T11:45:28.292Z,4.80
2023-01-17T11:48:18.352Z,4.90
2023-01-17T11:51:18.725Z,5.00
2023-01-17T11:54:18.659Z,5.10
2023-01-17T11:57:06.804Z,5.10
2023-01-17T12:00:11.785Z,5.20
2023-01-17T12:03:37.423Z,5.30
2023-01-17T12:06:56.162Z,5.30
2023-01-17T12:09:57.908Z,5.30
2023-01-17T12:13:19.213Z,5.40
2023-01-17T12:16:28.902Z,5.40
2023-01-17T12:19:38.903Z,5.40
2023-01-17T12:22:58.161Z,5.40
2023-01-17T12:26:10.366Z,5.40
2023-01-17T12:29:24.994Z,5.40
2023-01-17T12:32:47.511Z,5.40
2023-01-17T12:35:43.437Z,5.40
2023-01-17T12:38:37.611Z,5.40
2023-01-17T12:41:34.264Z,5.40
2023-01-17T12:44:36.966Z,5.40
2023-01-17T12:47:23.965Z,5.40
2023-01-17T12:50:25.868Z,5.40
2023-01-17T12:53:28.381Z,5.40
2023-01-17T12:56:24.290Z,5.40
2023-01-17T12:59:19.756Z,5.40
2023-01-17T13:02:23.106Z,5.40
2023-01-17T13:05:23.621Z,5.40
2023-01-17T13:08:24.733Z,5.30
2023-01-17T13:11:18.411Z,5.40
2023-01-17T13:14:10.247Z,5.30
2023-01-17T13:17:01.241Z,5.30
2023-01-17T13:19:57.668Z,5.30
2023-01-17T13:22:47.094Z,5.30
2023-01-17T13:25:45.505Z,5.30
2023-01-17T13:28:54.900Z,5.30
2023-01-17T13:31:52.664Z,5.30
2023-01-17T13:35:05.388Z,5.30
2023-01-17T13:38:30.138Z,5.30
2023-01-17T13:41:36.893Z,5.30
2023-01-17T13:44:30.028Z,5.30
2023-01-17T13:47:41.473Z,5.30
2023-01-17T13:50:52.902Z,5.40
2023-01-17T13:53:59.385Z,5.40
2023-01-17T13:56:48.752Z,5.40
2023-01-17T13:59:35.850Z,5.30
2023-01-17T14:02:42.105Z,5.40
2023-01-17T14:05:57.291Z,5.40
2023-01-17T14:08:46.623Z,5.40
2023-01-17T14:11:37.083Z,5.40
2023-01-17T14:14:55.441Z,5.40
2023-01-17T14:17:59.161Z,5.40
2023-01-17T14:21:03.187Z,5.40
2023-01-17T14:24:04.840Z,5.40
2023-01-17T14:26:58.852Z,5.40
2023-01-17T14:29:55.955Z,5.40
2023-01-17T14:32:43.639Z,5.40
2023-01-17T14:35:33.679Z,5.40
2023-01-17T14:38:24.019Z,5.40
2023-01-17T14:41:21.222Z,5.40
2023-01-17T14:44:13.172Z,5.40
2023-01-17T14:47:00.246Z,5.30
2023-01-17T14:49:46.747Z,5.40
2023-01-17T14:52:33.627Z,5.40
2023-01-17T14:55:23.913Z,5.30
2023-01-17T14:58:18.544Z,5.40
2023-01-17T15:01:13.542Z,5.30
2023-01-17T15:04:00.750Z,5.30
2023-01-17T15:06:49.885Z,5.30
2023-01-17T15:09:39.449Z,5.30
2023-01-17T15:12:26.241Z,5.30
2023-01-17T15:15:35.086Z,5.20
2023-01-17T15:18:29.467Z,5.20
2023-01-17T15:21:19.541Z,5.20
2023-01-17T15:24:21.059Z,5.10
2023-01-17T15:27:19.841Z,5.10
2023-01-17T15:30:08.784Z,5.10
2023-01-17T15:32:55.784Z,5.00
2023-01-17T15:35:43.960Z,5.00
2023-01-17T15:42:00.180Z,5.00
2023-01-17T15:44:56.313Z,4.90
2023-01-17T15:47:44.629Z,4.90
2023-01-17T15:50:36.441Z,4.90
2023-01-17T15:53:34.093Z,4.80
2023-01-17T15:56:29.659Z,4.80
2023-01-17T15:59:31.479Z,4.80
2023-01-17T16:02:35.688Z,4.80
2023-01-17T16:05:43.814Z,4.70
2023-01-17T16:08:40.532Z,4.70
2023-01-17T16:11:27.546Z,4.60
2023-01-17T16:14:26.568Z,4.60
2023-01-17T16:17:18.767Z,4.60
2023-01-17T16:20:15.879Z,4.50
2023-01-17T16:23:03.156Z,4.50
2023-01-17T16:25:51.397Z,4.40
2023-01-17T16:28:38.534Z,4.40
2023-01-17T16:31:25.404Z,4.30
2023-01-17T16:34:13.101Z,4.30
2023-01-17T16:37:00.003Z,4.30
2023-01-17T16:39:48.342Z,4.20
2023-01-17T16:42:36.750Z,4.20
2023-01-17T16:45:28.349Z,4.20
2023-01-17T16:48:19.362Z,4.10
2023-01-17T16:51:08.575Z,4.10
2023-01-17T16:53:55.510Z,4.00
2023-01-17T16:56:42.079Z,4.00
2023-01-17T16:59:42.373Z,4.00
2023-01-17T17:02:38.520Z,3.90
2023-01-17T17:05:25.951Z,3.90
2023-01-17T17:08:12.824Z,3.90
2023-01-17T17:11:17.300Z,3.80
2023-01-17T17:14:06.946Z,3.80
2023-01-17T17:16:59.926Z,3.80
2023-01-17T17:19:48.377Z,3.70
2023-01-17T17:22:36.373Z,3.70
2023-01-17T17:25:26.265Z,3.70
2023-01-17T17:28:16.851Z,3.70
2023-01-17T17:31:07.471Z,3.60
2023-01-17T17:34:00.342Z,3.60
2023-01-17T17:36:47.362Z,3.50
2023-01-17T17:39:36.863Z,3.50
2023-01-17T17:42:24.038Z,3.40
2023-01-17T17:45:14.526Z,3.40
2023-01-17T17:48:06.244Z,3.40
2023-01-17T17:50:59.816Z,3.30
2023-01-17T17:53:48.590Z,3.30
2023-01-17T17:56:39.469Z,3.30
2023-01-17T17:59:26.305Z,3.30
2023-01-17T18:02:13.616Z,3.30
2023-01-17T18:05:05.097Z,3.20
2023-01-17T18:07:53.769Z,3.20
2023-01-17T18:10:42.355Z,3.20
2023-01-17T18:13:35.045Z,3.10
2023-01-17T18:16:25.132Z,3.10
2023-01-17T18:19:18.524Z,3.10
2023-01-17T18:22:07.807Z,3.00
2023-01-17T18:24:55.962Z,3.00
2023-01-17T18:27:44.937Z,3.00
2023-01-17T18:30:38.403Z,2.90
2023-01-17T18:33:25.147Z,2.90
2023-01-17T18:36:14.449Z,2.90
2023-01-17T18:39:01.342Z,2.80
2023-01-17T18:41:52.651Z,2.80
2023-01-17T18:44:39.330Z,2.80
2023-01-17T18:47:26.596Z,2.80
2023-01-17T18:50:13.226Z,2.80
2023-01-17T18:53:00.169Z,2.70
2023-01-17T18:55:56.226Z,2.70
2023-01-17T18:59:34.853Z,2.70
2023-01-17T19:15:31.286Z,2.50
2023-01-17T19:18:18.306Z,2.40
2023-01-17T19:21:06.604Z,2.40
2023-01-17T19:23:53.752Z,2.30
2023-01-17T19:26:40.641Z,2.30
2023-01-17T19:29:29.959Z,2.30
2023-01-17T19:32:18.449Z,2.20
2023-01-17T19:35:05.849Z,2.20
2023-01-17T19:37:54.183Z,2.20
2023-01-17T19:40:41.687Z,2.10
2023-01-17T19:43:28.326Z,2.10
2023-01-17T19:46:18.776Z,2.00
2023-01-17T19:49:10.478Z,2.00
2023-01-17T19:51:59.149Z,2.00
2023-01-17T19:54:46.145Z,2.00
2023-01-17T19:57:41.602Z,2.00
2023-01-17T20:00:31.137Z,2.00
2023-01-17T20:03:17.727Z,1.90
2023-01-17T20:06:07.753Z,1.90
2023-01-17T20:08:55.460Z,1.90
2023-01-17T20:11:45.464Z,1.80
2023-01-17T20:14:32.073Z,1.80
2023-01-17T20:17:21.906Z,1.80
2023-01-17T20:20:13.404Z,1.80
2023-01-17T20:23:05.642Z,1.80
2023-01-17T20:25:58.901Z,1.80
2023-01-17T20:28:48.930Z,1.70
2023-01-17T20:31:38.214Z,1.70
2023-01-17T20:34:25.622Z,1.70
2023-01-17T20:37:14.192Z,1.70
2023-01-17T20:40:03.838Z,1.70
2023-01-17T20:42:50.561Z,1.70
2023-01-17T20:45:49.318Z,1.60
2023-01-17T20:48:38.691Z,1.60
2023-01-17T20:51:30.361Z,1.60
2023-01-17T20:54:20.043Z,1.60
2023-01-17T20:57:10.987Z,1.60
2023-01-17T20:59:57.776Z,1.60
2023-01-17T21:02:47.739Z,1.50
2023-01-17T21:05:35.966Z,1.50
2023-01-17T21:08:23.039Z,1.50
2023-01-17T21:11:12.353Z,1.50
2023-01-17T21:14:04.521Z,1.50
2023-01-17T21:16:51.567Z,1.50
2023-01-17T21:19:42.507Z,1.50
2023-01-17T21:22:30.214Z,1.50
2023-01-17T21:25:19.701Z,1.40
2023-01-17T21:28:06.818Z,1.40
2023-01-17T21:30:58.608Z,1.40
2023-01-17T21:33:45.548Z,1.30
2023-01-17T21:36:35.772Z,1.30
2023-01-17T21:39:22.944Z,1.30
2023-01-17T21:42:10.320Z,1.30
2023-01-17T21:44:57.079Z,1.20
2023-01-17T21:47:45.710Z,1.20
2023-01-17T21:50:33.939Z,1.20
2023-01-17T21:53:20.959Z,1.20
2023-01-17T21:56:32.750Z,1.20
2023-01-17T21:59:19.381Z,1.10
2023-01-17T22:02:10.317Z,1.10
2023-01-17T22:05:03.911Z,1.10
2023-01-17T22:08:15.179Z,1.10
2023-01-17T22:11:07.209Z,1.10
2023-01-17T22:13:53.873Z,1.10
2023-01-17T22:16:41.156Z,1.00
2023-01-17T22:19:29.163Z,1.00
2023-01-17T22:22:17.344Z,1.00
2023-01-17T22:25:04.114Z,1.00
2023-01-17T22:27:51.238Z,1.00
2023-01-17T22:30:40.757Z,1.00
2023-01-17T22:33:32.182Z,0.90
2023-01-17T22:36:20.124Z,0.90
2023-01-17T22:39:08.723Z,0.90
2023-01-17T22:41:58.667Z,0.80
2023-01-17T22:44:46.308Z,0.80
2023-01-17T22:47:35.716Z,0.80
2023-01-17T22:50:25.180Z,0.80
2023-01-17T22:53:13.977Z,0.70
2023-01-17T22:56:05.235Z,0.70
2023-01-17T22:58:52.350Z,0.60
2023-01-17T23:01:41.405Z,0.60
2023-01-17T23:04:28.755Z,0.50
2023-01-17T23:07:16.538Z,0.50
2023-01-17T23:10:03.652Z,0.40
2023-01-17T23:12:51.781Z,0.40
2023-01-17T23:15:56.932Z,0.30
2023-01-17T23:19:01.531Z,0.30
2023-01-17T23:22:06.122Z,0.30
2023-01-17T23:24:55.943Z,0.30
2023-01-17T23:28:02.855Z,0.30
2023-01-17T23:30:51.214Z,0.30
2023-01-17T23:33:37.664Z,0.20
2023-01-17T23:36:24.579Z,0.20
2023-01-17T23:39:11.371Z,0.20
2023-01-17T23:42:15.973Z,0.20
2023-01-17T23:45:02.843Z,0.20
2023-01-17T23:47:51.053Z,0.20
2023-01-17T23:50:38.654Z,0.20
2023-01-17T23:53:26.078Z,0.20
2023-01-17T23:56:18.063Z,0.30
2023-01-17T23:59:04.683Z,0.20
